Time,TemperatureF,DewpointF,PressureIn,WindDirection,WindDirectionDegrees,WindSpeedMPH,WindSpeedGustMPH,Humidity,HourlyPrecipIn,Conditions,Clouds,dailyrainin,SoftwareType,DateUTC
2013-04-03 00:04:00,21.3,13.7,30.36,West,281,0.0,0.0,72,0.00,,,0.00,Wunderground v.1.15,2013-04-03 05:04:00,
2013-04-03 00:09:00,21.2,13.6,30.36,West,281,0.0,0.0,72,0.00,,,0.00,Wunderground v.1.15,2013-04-03 05:09:00,
2013-04-03 00:14:00,20.6,12.7,30.36,WNW,282,0.0,0.0,71,0.00,,,0.00,Wunderground v.1.15,2013-04-03 05:14:00,
2013-04-03 00:19:00,20.1,12.8,30.36,West,281,0.0,0.0,73,0.00,,,0.00,Wunderground v.1.15,2013-04-03 05:19:00,
2013-04-03 00:29:00,19.8,12.8,30.37,West,281,0.0,0.0,74,0.00,,,0.00,Wunderground v.1.15,2013-04-03 05:29:00,
2013-04-03 00:34:00,19.8,13.2,30.37,WNW,282,0.0,0.0,75,0.00,,,0.00,Wunderground v.1.15,2013-04-03 05:34:00,
2013-04-03 00:39:00,19.7,13.1,30.37,WNW,282,0.0,0.0,75,0.00,,,0.00,Wunderground v.1.15,2013-04-03 05:39:00,
2013-04-03 00:44:00,19.7,13.1,30.37,West,281,0.0,0.0,75,0.00,,,0.00,Wunderground v.1.15,2013-04-03 05:44:00,
2013-04-03 00:49:00,19.4,13.1,30.37,WNW,282,0.0,0.0,76,0.00,,,0.00,Wunderground v.1.15,2013-04-03 05:49:00,
2013-04-03 00:54:00,19.3,13.3,30.37,West,281,0.0,0.0,77,0.00,,,0.00,Wunderground v.1.15,2013-04-03 05:54:00,
2013-04-03 00:59:00,19.3,13.6,30.37,WNW,282,0.0,0.0,78,0.00,,,0.00,Wunderground v.1.15,2013-04-03 05:59:00,
2013-04-03 01:09:00,18.9,13.5,30.38,WNW,282,0.0,0.0,79,0.00,,,0.00,Wunderground v.1.15,2013-04-03 06:09:00,
2013-04-03 01:14:00,18.4,13.0,30.38,WNW,282,0.0,0.0,79,0.00,,,0.00,Wunderground v.1.15,2013-04-03 06:14:00,
2013-04-03 01:19:00,18.0,12.9,30.38,WNW,282,0.0,0.0,80,0.00,,,0.00,Wunderground v.1.15,2013-04-03 06:19:00,
2013-04-03 01:29:00,17.6,13.0,30.38,WNW,282,0.0,0.0,82,0.00,,,0.00,Wunderground v.1.15,2013-04-03 06:29:00,
2013-04-03 01:39:00,17.7,13.4,30.38,West,281,0.0,0.0,83,0.00,,,0.00,Wunderground v.1.15,2013-04-03 06:39:00,
2013-04-03 01:44:00,17.6,13.3,30.39,WNW,282,0.0,0.0,83,0.00,,,0.00,Wunderground v.1.15,2013-04-03 06:44:00,
2013-04-03 01:49:00,17.5,13.2,30.39,West,281,0.0,0.0,83,0.00,,,0.00,Wunderground v.1.15,2013-04-03 06:49:00,
2013-04-03 02:08:00,16.9,13.2,30.39,WNW,282,0.0,0.0,85,0.00,,,0.00,Wunderground v.1.15,2013-04-03 07:08:00,
2013-04-03 02:13:00,16.6,12.9,30.39,WNW,282,0.0,0.0,85,0.00,,,0.00,Wunderground v.1.15,2013-04-03 07:13:00,
2013-04-03 03:19:00,14.8,11.6,30.40,WNW,282,0.0,0.0,87,0.00,,,0.00,Wunderground v.1.15,2013-04-03 08:19:00,
2013-04-03 03:29:00,14.5,11.3,30.40,WNW,282,0.0,0.0,87,0.00,,,0.00,Wunderground v.1.15,2013-04-03 08:29:00,
2013-04-03 03:39:00,14.6,11.7,30.40,West,281,0.0,0.0,88,0.00,,,0.00,Wunderground v.1.15,2013-04-03 08:39:00,
2013-04-03 04:09:00,14.1,11.2,30.41,WNW,282,0.0,0.0,88,0.00,,,0.00,Wunderground v.1.15,2013-04-03 09:09:00,
2013-04-03 04:19:00,13.9,11.0,30.42,West,281,0.0,0.0,88,0.00,,,0.00,Wunderground v.1.15,2013-04-03 09:19:00,
2013-04-03 04:24:00,14.1,11.5,30.42,WNW,282,0.0,0.0,89,0.00,,,0.00,Wunderground v.1.15,2013-04-03 09:24:00,
2013-04-03 04:34:00,14.1,11.5,30.42,West,281,0.0,0.0,89,0.00,,,0.00,Wunderground v.1.15,2013-04-03 09:34:00,
2013-04-03 04:39:00,13.8,10.9,30.42,West,281,0.0,0.0,88,0.00,,,0.00,Wunderground v.1.15,2013-04-03 09:39:00,
2013-04-03 04:44:00,13.6,10.7,30.42,WNW,282,0.0,0.0,88,0.00,,,0.00,Wunderground v.1.15,2013-04-03 09:44:00,
2013-04-03 04:49:00,13.6,11.0,30.42,WNW,282,0.0,0.0,89,0.00,,,0.00,Wunderground v.1.15,2013-04-03 09:49:00,
2013-04-03 04:54:00,13.6,11.0,30.42,West,281,0.0,0.0,89,0.00,,,0.00,Wunderground v.1.15,2013-04-03 09:54:00,
2013-04-03 05:04:00,13.4,10.8,30.43,WNW,282,0.0,0.0,89,0.00,,,0.00,Wunderground v.1.15,2013-04-03 10:04:00,
2013-04-03 05:14:00,13.0,10.1,30.43,West,281,0.0,0.0,88,0.00,,,0.00,Wunderground v.1.15,2013-04-03 10:14:00,
2013-04-03 05:19:00,12.9,10.3,30.43,WNW,282,0.0,0.0,89,0.00,,,0.00,Wunderground v.1.15,2013-04-03 10:19:00,
2013-04-03 05:24:00,12.9,10.3,30.43,WNW,282,0.0,0.0,89,0.00,,,0.00,Wunderground v.1.15,2013-04-03 10:24:00,
2013-04-03 05:34:00,13.0,10.4,30.43,WNW,282,0.0,0.0,89,0.00,,,0.00,Wunderground v.1.15,2013-04-03 10:34:00,
2013-04-03 05:39:00,13.0,10.4,30.43,WNW,282,0.0,0.0,89,0.00,,,0.00,Wunderground v.1.15,2013-04-03 10:39:00,
2013-04-03 05:49:00,13.1,10.5,30.44,WNW,282,0.0,0.0,89,0.00,,,0.00,Wunderground v.1.15,2013-04-03 10:49:00,
2013-04-03 05:54:00,13.0,10.4,30.44,WNW,282,0.0,0.0,89,0.00,,,0.00,Wunderground v.1.15,2013-04-03 10:54:00,
2013-04-03 06:04:00,12.7,10.1,30.44,West,281,0.0,0.0,89,0.00,,,0.00,Wunderground v.1.15,2013-04-03 11:04:00,
2013-04-03 06:09:00,12.5,9.9,30.45,WNW,282,0.0,0.0,89,0.00,,,0.00,Wunderground v.1.15,2013-04-03 11:09:00,
2013-04-03 06:14:00,12.4,9.8,30.44,WNW,282,0.0,0.0,89,0.00,,,0.00,Wunderground v.1.15,2013-04-03 11:14:00,
2013-04-03 06:19:00,12.2,9.6,30.44,West,281,0.0,0.0,89,0.00,,,0.00,Wunderground v.1.15,2013-04-03 11:19:00,
2013-04-03 06:24:00,12.0,9.4,30.44,WNW,282,0.0,0.0,89,0.00,,,0.00,Wunderground v.1.15,2013-04-03 11:24:00,
2013-04-03 06:29:00,11.9,9.0,30.44,West,281,0.0,0.0,88,0.00,,,0.00,Wunderground v.1.15,2013-04-03 11:29:00,
2013-04-03 06:34:00,11.8,9.2,30.44,WNW,282,0.0,0.0,89,0.00,,,0.00,Wunderground v.1.15,2013-04-03 11:34:00,
2013-04-03 06:39:00,11.7,9.1,30.44,West,281,0.0,0.0,89,0.00,,,0.00,Wunderground v.1.15,2013-04-03 11:39:00,
2013-04-03 06:48:00,11.9,9.3,30.45,WNW,282,0.0,0.0,89,0.00,,,0.00,Wunderground v.1.15,2013-04-03 11:48:00,
2013-04-03 06:54:00,12.2,9.6,30.45,WNW,282,0.0,0.0,89,0.00,,,0.00,Wunderground v.1.15,2013-04-03 11:54:00,
2013-04-03 06:59:00,12.4,9.8,30.46,WNW,282,0.0,0.0,89,0.00,,,0.00,Wunderground v.1.15,2013-04-03 11:59:00,
2013-04-03 07:04:00,12.5,9.9,30.46,WNW,282,0.0,0.0,89,0.00,,,0.00,Wunderground v.1.15,2013-04-03 12:04:00,
2013-04-03 07:09:00,12.8,10.2,30.46,WNW,282,0.0,0.0,89,0.00,,,0.00,Wunderground v.1.15,2013-04-03 12:09:00,
2013-04-03 07:19:00,14.0,11.4,30.47,WNW,282,0.0,0.0,89,0.00,,,0.00,Wunderground v.1.15,2013-04-03 12:19:00,
2013-04-03 07:24:00,14.4,11.8,30.47,WNW,282,0.0,0.0,89,0.00,,,0.00,Wunderground v.1.15,2013-04-03 12:24:00,
2013-04-03 07:34:00,16.0,13.3,30.47,WNW,282,0.0,0.0,89,0.00,,,0.00,Wunderground v.1.15,2013-04-03 12:34:00,
2013-04-03 07:39:00,16.7,13.8,30.47,West,281,0.0,0.0,88,0.00,,,0.00,Wunderground v.1.15,2013-04-03 12:39:00,
2013-04-03 07:48:00,18.7,15.7,30.48,WNW,282,0.0,0.0,88,0.00,,,0.00,Wunderground v.1.15,2013-04-03 12:48:00,
2013-04-03 07:53:00,19.1,15.6,30.48,West,281,0.0,0.0,86,0.00,,,0.00,Wunderground v.1.15,2013-04-03 12:53:00,
2013-04-03 07:58:00,19.3,15.0,30.48,WNW,282,0.0,0.0,83,0.00,,,0.00,Wunderground v.1.15,2013-04-03 12:58:00,
2013-04-03 08:03:00,19.8,15.5,30.49,WNW,282,0.0,0.0,83,0.00,,,0.00,Wunderground v.1.15,2013-04-03 13:03:00,
2013-04-03 08:08:00,20.9,16.3,30.49,West,281,0.0,0.0,82,0.00,,,0.00,Wunderground v.1.15,2013-04-03 13:08:00,
2013-04-03 08:13:00,22.2,17.0,30.49,WNW,282,0.0,0.0,80,0.00,,,0.00,Wunderground v.1.15,2013-04-03 13:13:00,
2013-04-03 08:23:00,24.6,17.5,30.49,WNW,282,0.0,0.0,74,0.00,,,0.00,Wunderground v.1.15,2013-04-03 13:23:00,
2013-04-03 08:28:00,25.0,16.9,30.49,WNW,282,0.0,0.0,71,0.00,,,0.00,Wunderground v.1.15,2013-04-03 13:28:00,
2013-04-03 08:33:00,24.9,16.5,30.49,WNW,282,0.0,0.0,70,0.00,,,0.00,Wunderground v.1.15,2013-04-03 13:33:00,
2013-04-03 08:38:00,25.4,16.0,30.50,West,281,0.0,0.0,67,0.00,,,0.00,Wunderground v.1.15,2013-04-03 13:38:00,
2013-04-03 08:48:00,27.2,14.8,30.50,West,281,0.0,0.0,59,0.00,,,0.00,Wunderground v.1.15,2013-04-03 13:48:00,
2013-04-03 08:54:00,28.6,15.3,30.50,WNW,282,0.0,0.0,57,0.00,,,0.00,Wunderground v.1.15,2013-04-03 13:54:00,
2013-04-03 08:59:00,29.2,14.2,30.50,West,281,0.0,0.0,53,0.00,,,0.00,Wunderground v.1.15,2013-04-03 13:59:00,
2013-04-03 09:04:00,28.9,13.0,30.50,East,80,0.0,0.0,51,0.00,,,0.00,Wunderground v.1.15,2013-04-03 14:04:00,
2013-04-03 09:09:00,29.0,13.1,30.50,East,80,0.0,0.0,51,0.00,,,0.00,Wunderground v.1.15,2013-04-03 14:09:00,
2013-04-03 09:19:00,30.1,13.2,30.51,East,80,0.0,0.0,49,0.00,,,0.00,Wunderground v.1.15,2013-04-03 14:19:00,
2013-04-03 09:24:00,30.2,13.3,30.51,East,86,1.0,1.0,49,0.00,,,0.00,Wunderground v.1.15,2013-04-03 14:24:00,
2013-04-03 09:29:00,30.6,13.7,30.51,East,90,1.0,1.0,49,0.00,,,0.00,Wunderground v.1.15,2013-04-03 14:29:00,
2013-04-03 09:34:00,30.6,13.2,30.51,East,94,1.0,2.0,48,0.00,,,0.00,Wunderground v.1.15,2013-04-03 14:34:00,
2013-04-03 09:44:00,30.4,12.5,30.52,East,94,1.0,1.0,47,0.00,,,0.00,Wunderground v.1.15,2013-04-03 14:44:00,
2013-04-03 09:49:00,30.4,14.0,30.52,East,94,1.0,3.0,50,0.00,,,0.00,Wunderground v.1.15,2013-04-03 14:49:00,
2013-04-03 09:54:00,30.2,12.8,30.52,East,83,2.0,3.0,48,0.00,,,0.00,Wunderground v.1.15,2013-04-03 14:54:00,
2013-04-03 09:59:00,30.6,12.2,30.52,East,84,1.0,1.0,46,0.00,,,0.00,Wunderground v.1.15,2013-04-03 14:59:00,
2013-04-03 10:04:00,31.3,13.4,30.52,East,84,1.0,1.0,47,0.00,,,0.00,Wunderground v.1.15,2013-04-03 15:04:00,
2013-04-03 10:09:00,31.5,12.6,30.52,SE,128,1.0,1.0,45,0.00,,,0.00,Wunderground v.1.15,2013-04-03 15:09:00,
2013-04-03 10:19:00,32.7,11.6,30.52,South,175,1.0,4.0,41,0.00,,,0.00,Wunderground v.1.15,2013-04-03 15:19:00,
2013-04-03 10:24:00,32.7,10.4,30.52,SE,140,1.0,4.0,39,0.00,,,0.00,Wunderground v.1.15,2013-04-03 15:24:00,
2013-04-03 10:29:00,32.9,11.7,30.52,SE,132,1.0,1.0,41,0.00,,,0.00,Wunderground v.1.15,2013-04-03 15:29:00,
2013-04-03 10:34:00,33.1,11.9,30.52,South,170,1.0,1.0,41,0.00,,,0.00,Wunderground v.1.15,2013-04-03 15:34:00,
2013-04-03 10:44:00,33.0,12.4,30.52,East,97,1.0,3.0,42,0.00,,,0.00,Wunderground v.1.15,2013-04-03 15:44:00,
2013-04-03 10:49:00,33.5,12.8,30.52,ESE,119,1.0,1.0,42,0.00,,,0.00,Wunderground v.1.15,2013-04-03 15:49:00,
2013-04-03 10:54:00,33.7,11.9,30.52,SSE,168,2.0,2.0,40,0.00,,,0.00,Wunderground v.1.15,2013-04-03 15:54:00,
2013-04-03 10:59:00,34.6,12.7,30.52,SSE,168,1.0,6.0,40,0.00,,,0.00,Wunderground v.1.15,2013-04-03 15:59:00,
2013-04-03 11:09:00,34.4,12.0,30.51,SSW,210,3.0,3.0,39,0.00,,,0.00,Wunderground v.1.15,2013-04-03 16:09:00,
2013-04-03 11:14:00,34.2,11.8,30.51,WSW,240,3.0,3.0,39,0.00,,,0.00,Wunderground v.1.15,2013-04-03 16:14:00,
2013-04-03 11:24:00,35.6,11.9,30.51,WNW,303,1.0,4.0,37,0.00,,,0.00,Wunderground v.1.15,2013-04-03 16:24:00,
2013-04-03 11:29:00,36.5,10.7,30.51,SSW,194,1.0,8.0,34,0.00,,,0.00,Wunderground v.1.15,2013-04-03 16:29:00,
2013-04-03 11:54:00,37.3,10.8,30.50,ENE,76,0.0,1.0,33,0.00,,,0.00,Wunderground v.1.15,2013-04-03 16:54:00,
2013-04-03 11:59:00,37.9,11.3,30.50,ENE,64,0.0,0.0,33,0.00,,,0.00,Wunderground v.1.15,2013-04-03 16:59:00,
2013-04-03 12:04:00,38.1,9.4,30.49,ENE,64,0.0,0.0,30,0.00,,,0.00,Wunderground v.1.15,2013-04-03 17:04:00,
2013-04-03 12:19:00,36.2,11.8,30.48,West,261,2.0,2.0,36,0.00,,,0.00,Wunderground v.1.15,2013-04-03 17:19:00,
2013-04-03 12:24:00,37.0,10.5,30.47,NNE,22,2.0,2.0,33,0.00,,,0.00,Wunderground v.1.15,2013-04-03 17:24:00,
2013-04-03 12:59:00,37.1,9.2,30.45,NE,51,1.0,3.0,31,0.00,,,0.00,Wunderground v.1.15,2013-04-03 17:59:00,
2013-04-03 13:14:00,38.0,10.7,30.44,NNW,336,0.0,1.0,32,0.00,,,0.00,Wunderground v.1.15,2013-04-03 18:14:00,
2013-04-03 13:34:00,37.5,9.6,30.42,East,84,1.0,1.0,31,0.00,,,0.00,Wunderground v.1.15,2013-04-03 18:34:00,
2013-04-03 13:39:00,37.1,11.3,30.42,ENE,72,1.0,3.0,34,0.00,,,0.00,Wunderground v.1.15,2013-04-03 18:39:00,
2013-04-03 13:54:00,36.6,9.5,30.42,ESE,106,2.0,5.0,32,0.00,,,0.00,Wunderground v.1.15,2013-04-03 18:54:00,
2013-04-03 14:00:00,37.0,10.5,30.42,ENE,61,1.0,1.0,33,0.00,,,0.00,Wunderground v.1.15,2013-04-03 19:00:00,
2013-04-03 14:09:00,38.2,9.4,30.42,ESE,119,1.0,3.0,30,0.00,,,0.00,Wunderground v.1.15,2013-04-03 19:09:00,
2013-04-03 14:14:00,38.4,8.1,30.42,ESE,121,1.0,3.0,28,0.00,,,0.00,Wunderground v.1.15,2013-04-03 19:14:00,
2013-04-03 14:19:00,38.7,9.1,30.42,ESE,117,1.0,1.0,29,0.00,,,0.00,Wunderground v.1.15,2013-04-03 19:19:00,
2013-04-03 14:29:00,37.7,7.5,30.42,ESE,119,1.0,4.0,28,0.00,,,0.00,Wunderground v.1.15,2013-04-03 19:29:00,
2013-04-03 14:34:00,38.5,8.2,30.42,SE,126,1.0,4.0,28,0.00,,,0.00,Wunderground v.1.15,2013-04-03 19:34:00,
2013-04-03 14:39:00,38.7,9.1,30.42,SSE,163,1.0,1.0,29,0.00,,,0.00,Wunderground v.1.15,2013-04-03 19:39:00,
2013-04-03 14:44:00,38.5,11.8,30.42,East,97,1.0,2.0,33,0.00,,,0.00,Wunderground v.1.15,2013-04-03 19:44:00,
2013-04-03 14:49:00,38.1,10.8,30.42,ESE,119,2.0,2.0,32,0.00,,,0.00,Wunderground v.1.15,2013-04-03 19:49:00,
2013-04-03 14:59:00,38.6,9.8,30.41,ESE,121,1.0,2.0,30,0.00,,,0.00,Wunderground v.1.15,2013-04-03 19:59:00,
2013-04-03 15:04:00,39.0,10.1,30.41,ESE,122,1.0,2.0,30,0.00,,,0.00,Wunderground v.1.15,2013-04-03 20:04:00,
2013-04-03 15:09:00,39.5,9.8,30.41,South,187,1.0,3.0,29,0.00,,,0.00,Wunderground v.1.15,2013-04-03 20:09:00,
2013-04-03 15:19:00,40.1,11.8,30.41,SSE,165,3.0,8.0,31,0.00,,,0.00,Wunderground v.1.15,2013-04-03 20:19:00,
2013-04-03 15:29:00,39.4,11.2,30.41,SSE,159,3.0,7.0,31,0.00,,,0.00,Wunderground v.1.15,2013-04-03 20:29:00,
2013-04-03 15:34:00,39.5,10.6,30.41,ESE,119,3.0,7.0,30,0.00,,,0.00,Wunderground v.1.15,2013-04-03 20:34:00,
2013-04-03 15:44:00,40.8,11.7,30.41,South,182,2.0,2.0,30,0.00,,,0.00,Wunderground v.1.15,2013-04-03 20:44:00,
2013-04-03 15:59:00,41.1,12.0,30.39,South,179,4.0,4.0,30,0.00,,,0.00,Wunderground v.1.15,2013-04-03 20:59:00,
2013-04-03 16:04:00,41.1,14.1,30.39,ESE,116,2.0,4.0,33,0.00,,,0.00,Wunderground v.1.15,2013-04-03 21:04:00,
2013-04-03 16:14:00,40.7,12.4,30.39,South,170,3.0,5.0,31,0.00,,,0.00,Wunderground v.1.15,2013-04-03 21:14:00,
2013-04-03 16:19:00,40.7,15.8,30.39,SE,143,4.0,4.0,36,0.00,,,0.00,Wunderground v.1.15,2013-04-03 21:19:00,
2013-04-03 16:24:00,40.9,13.3,30.38,South,180,2.0,4.0,32,0.00,,,0.00,Wunderground v.1.15,2013-04-03 21:24:00,
2013-04-03 16:34:00,41.8,14.1,30.38,SSE,159,1.0,1.0,32,0.00,,,0.00,Wunderground v.1.15,2013-04-03 21:34:00,
2013-04-03 16:39:00,41.3,12.1,30.37,SSE,164,3.0,4.0,30,0.00,,,0.00,Wunderground v.1.15,2013-04-03 21:39:00,
2013-04-03 16:44:00,41.1,12.7,30.37,SSW,202,4.0,4.0,31,0.00,,,0.00,Wunderground v.1.15,2013-04-03 21:44:00,
2013-04-03 16:59:00,41.5,13.8,30.37,SSE,165,2.0,2.0,32,0.00,,,0.00,Wunderground v.1.15,2013-04-03 21:59:00,
2013-04-03 17:09:00,40.9,16.0,30.37,ESE,122,3.0,3.0,36,0.00,,,0.00,Wunderground v.1.15,2013-04-03 22:09:00,
2013-04-03 17:14:00,40.6,14.4,30.37,SSW,200,3.0,4.0,34,0.00,,,0.00,Wunderground v.1.15,2013-04-03 22:14:00,
2013-04-03 17:24:00,40.3,14.1,30.37,South,191,3.0,4.0,34,0.00,,,0.00,Wunderground v.1.15,2013-04-03 22:24:00,
2013-04-03 17:29:00,40.3,14.1,30.36,SSW,193,4.0,4.0,34,0.00,,,0.00,Wunderground v.1.15,2013-04-03 22:29:00,
2013-04-03 17:39:00,40.2,16.0,30.36,South,189,4.0,5.0,37,0.00,,,0.00,Wunderground v.1.15,2013-04-03 22:39:00,
2013-04-03 17:44:00,40.1,13.9,30.36,South,180,5.0,5.0,34,0.00,,,0.00,Wunderground v.1.15,2013-04-03 22:44:00,
2013-04-03 17:49:00,40.2,15.3,30.36,South,180,3.0,4.0,36,0.00,,,0.00,Wunderground v.1.15,2013-04-03 22:49:00,
2013-04-03 17:59:00,40.3,15.4,30.35,SSE,157,3.0,3.0,36,0.00,,,0.00,Wunderground v.1.15,2013-04-03 22:59:00,
2013-04-03 18:04:00,40.2,16.0,30.35,South,188,3.0,3.0,37,0.00,,,0.00,Wunderground v.1.15,2013-04-03 23:04:00,
2013-04-03 18:14:00,40.1,15.9,30.34,South,191,2.0,6.0,37,0.00,,,0.00,Wunderground v.1.15,2013-04-03 23:14:00,
2013-04-03 18:29:00,39.7,16.1,30.34,SE,125,2.0,2.0,38,0.00,,,0.00,Wunderground v.1.15,2013-04-03 23:29:00,
2013-04-03 18:38:00,39.3,15.8,30.33,South,186,1.0,1.0,38,0.00,,,0.00,Wunderground v.1.15,2013-04-03 23:38:00,
2013-04-03 18:48:00,38.9,16.0,30.33,SE,145,2.0,2.0,39,0.00,,,0.00,Wunderground v.1.15,2013-04-03 23:48:00,
2013-04-03 18:53:00,38.8,16.5,30.33,SE,141,2.0,2.0,40,0.00,,,0.00,Wunderground v.1.15,2013-04-03 23:53:00,
2013-04-03 18:58:00,38.6,16.9,30.33,SSE,157,1.0,1.0,41,0.00,,,0.00,Wunderground v.1.15,2013-04-03 23:58:00,
2013-04-03 19:18:00,37.3,16.8,30.33,SSE,148,0.0,0.0,43,0.00,,,0.00,Wunderground v.1.15,2013-04-04 00:18:00,
2013-04-03 19:33:00,36.0,17.7,30.32,SSE,148,0.0,0.0,47,0.00,,,0.00,Wunderground v.1.15,2013-04-04 00:33:00,
2013-04-03 19:43:00,34.9,18.1,30.32,SSE,148,0.0,0.0,50,0.00,,,0.00,Wunderground v.1.15,2013-04-04 00:43:00,
2013-04-03 19:48:00,34.3,18.0,30.32,SSE,148,0.0,0.0,51,0.00,,,0.00,Wunderground v.1.15,2013-04-04 00:48:00,
2013-04-03 19:54:00,33.4,18.9,30.32,SSE,148,0.0,0.0,55,0.00,,,0.00,Wunderground v.1.15,2013-04-04 00:54:00,
2013-04-03 19:59:00,32.8,18.4,30.32,SSE,148,0.0,0.0,55,0.00,,,0.00,Wunderground v.1.15,2013-04-04 00:59:00,
2013-04-03 20:09:00,32.1,18.2,30.31,SSE,148,0.0,0.0,56,0.00,,,0.00,Wunderground v.1.15,2013-04-04 01:09:00,
2013-04-03 20:14:00,32.2,17.4,30.31,SSE,148,0.0,0.0,54,0.00,,,0.00,Wunderground v.1.15,2013-04-04 01:14:00,
2013-04-03 20:19:00,32.5,17.7,30.31,SSE,148,0.0,0.0,54,0.00,,,0.00,Wunderground v.1.15,2013-04-04 01:19:00,
2013-04-03 20:29:00,32.2,17.4,30.30,SSE,148,0.0,0.0,54,0.00,,,0.00,Wunderground v.1.15,2013-04-04 01:29:00,
2013-04-03 20:34:00,32.2,17.8,30.31,SSE,148,0.0,0.0,55,0.00,,,0.00,Wunderground v.1.15,2013-04-04 01:34:00,
2013-04-03 20:39:00,32.0,17.6,30.30,SSE,148,0.0,0.0,55,0.00,,,0.00,Wunderground v.1.15,2013-04-04 01:39:00,
2013-04-03 20:44:00,31.9,17.5,30.30,SSE,148,0.0,0.0,55,0.00,,,0.00,Wunderground v.1.15,2013-04-04 01:44:00,
2013-04-03 20:54:00,31.0,18.3,30.30,SSE,148,0.0,0.0,59,0.00,,,0.00,Wunderground v.1.15,2013-04-04 01:54:00,
2013-04-03 20:59:00,30.3,19.2,30.30,SSE,148,0.0,0.0,63,0.00,,,0.00,Wunderground v.1.15,2013-04-04 01:59:00,
2013-04-03 21:14:00,28.8,18.1,30.30,SSE,148,0.0,0.0,64,0.00,,,0.00,Wunderground v.1.15,2013-04-04 02:14:00,
2013-04-03 21:19:00,28.5,17.9,30.31,SSE,148,0.0,0.0,64,0.00,,,0.00,Wunderground v.1.15,2013-04-04 02:19:00,
2013-04-03 21:24:00,28.3,18.0,30.31,SSE,148,0.0,0.0,65,0.00,,,0.00,Wunderground v.1.15,2013-04-04 02:24:00,
2013-04-03 21:29:00,28.0,17.4,30.31,SSE,148,0.0,0.0,64,0.00,,,0.00,Wunderground v.1.15,2013-04-04 02:29:00,
2013-04-03 21:39:00,27.5,17.6,30.32,SSE,148,0.0,0.0,66,0.00,,,0.00,Wunderground v.1.15,2013-04-04 02:39:00,
2013-04-03 21:44:00,27.3,18.1,30.32,SSE,148,0.0,0.0,68,0.00,,,0.00,Wunderground v.1.15,2013-04-04 02:44:00,
2013-04-03 21:49:00,27.1,17.6,30.31,SSE,148,0.0,0.0,67,0.00,,,0.00,Wunderground v.1.15,2013-04-04 02:49:00,
2013-04-03 21:54:00,26.8,17.3,30.31,SSE,148,0.0,0.0,67,0.00,,,0.00,Wunderground v.1.15,2013-04-04 02:54:00,
2013-04-03 22:19:00,26.6,17.5,30.30,SSE,148,0.0,0.0,68,0.00,,,0.00,Wunderground v.1.15,2013-04-04 03:19:00,
2013-04-03 22:24:00,26.8,17.6,30.30,SSE,148,0.0,0.0,68,0.00,,,0.00,Wunderground v.1.15,2013-04-04 03:24:00,
2013-04-03 22:34:00,27.1,17.2,30.30,SSE,148,0.0,0.0,66,0.00,,,0.00,Wunderground v.1.15,2013-04-04 03:34:00,
2013-04-03 22:49:00,27.9,17.6,30.29,SSE,148,0.0,0.0,65,0.00,,,0.00,Wunderground v.1.15,2013-04-04 03:49:00,
2013-04-03 22:54:00,27.9,17.6,30.29,SSE,148,0.0,0.0,65,0.00,,,0.00,Wunderground v.1.15,2013-04-04 03:54:00,
2013-04-03 22:59:00,27.8,17.2,30.29,SSE,148,0.0,0.0,64,0.00,,,0.00,Wunderground v.1.15,2013-04-04 03:59:00,
2013-04-03 23:04:00,27.6,18.1,30.29,SSE,148,0.0,0.0,67,0.00,,,0.00,Wunderground v.1.15,2013-04-04 04:04:00,
2013-04-03 23:19:00,26.9,17.4,30.28,SSE,148,0.0,0.0,67,0.00,,,0.00,Wunderground v.1.15,2013-04-04 04:19:00,
2013-04-03 23:24:00,26.8,17.6,30.28,SSE,148,0.0,0.0,68,0.00,,,0.00,Wunderground v.1.15,2013-04-04 04:24:00,
2013-04-03 23:29:00,26.9,17.7,30.27,SSE,148,0.0,0.0,68,0.00,,,0.00,Wunderground v.1.15,2013-04-04 04:29:00,
2013-04-03 23:44:00,27.2,18.0,30.27,SSE,164,0.0,0.0,68,0.00,,,0.00,Wunderground v.1.15,2013-04-04 04:44:00,